sensor_id;sensor_type;location;lat;lon;timestamp;pressure;altitude;pressure_sealevel;temperature;humidity
14885;BME280;7534;50.762;7.000;2023-04-24T00:00:34;87848.16;;;-143.16;57.36
14885;BME280;7534;50.762;7.000;2023-04-24T00:03:01;87874.38;;;-143.16;57.23
14885;BME280;7534;50.762;7.000;2023-04-24T00:05:28;87862.28;;;-143.16;57.22
14885;BME280;7534;50.762;7.000;2023-04-24T00:07:54;87825.94;;;-143.16;57.61
14885;BME280;7534;50.762;7.000;2023-04-24T00:10:20;87882.47;;;-143.16;57.67
14885;BME280;7534;50.762;7.000;2023-04-24T00:12:46;87884.47;;;-143.16;58.05
14885;BME280;7534;50.762;7.000;2023-04-24T00:15:12;87918.78;;;-143.16;59.01
14885;BME280;7534;50.762;7.000;2023-04-24T00:17:53;87874.38;;;-143.16;59.42
14885;BME280;7534;50.762;7.000;2023-04-24T00:20:19;87953.09;;;-143.16;59.82
14885;BME280;7534;50.762;7.000;2023-04-24T00:22:44;87938.97;;;-143.16;60.13
14885;BME280;7534;50.762;7.000;2023-04-24T00:25:10;88015.69;;;-143.16;60.21
14885;BME280;7534;50.762;7.000;2023-04-24T00:27:36;87995.50;;;-143.16;60.73
14885;BME280;7534;50.762;7.000;2023-04-24T00:30:03;87932.91;;;-143.16;60.76
14885;BME280;7534;50.762;7.000;2023-04-24T00:32:29;87947.06;;;-143.16;60.48
14885;BME280;7534;50.762;7.000;2023-04-24T00:34:55;87914.75;;;-143.16;60.56
14885;BME280;7534;50.762;7.000;2023-04-24T00:37:21;87910.72;;;-143.16;60.51
14885;BME280;7534;50.762;7.000;2023-04-24T00:39:46;87906.69;;;-143.16;60.45
14885;BME280;7534;50.762;7.000;2023-04-24T00:42:12;87912.75;;;-143.16;60.64
14885;BME280;7534;50.762;7.000;2023-04-24T00:44:38;87884.47;;;-143.16;60.36
14885;BME280;7534;50.762;7.000;2023-04-24T00:47:04;87888.50;;;-143.16;60.10
14885;BME280;7534;50.762;7.000;2023-04-24T00:49:30;87908.69;;;-143.16;60.06
14885;BME280;7534;50.762;7.000;2023-04-24T00:51:56;87878.41;;;-143.16;60.17
14885;BME280;7534;50.762;7.000;2023-04-24T00:54:22;87844.09;;;-143.16;60.19
14885;BME280;7534;50.762;7.000;2023-04-24T00:56:48;87870.34;;;-143.16;59.78
14885;BME280;7534;50.762;7.000;2023-04-24T00:59:16;87852.19;;;-143.16;59.55
14885;BME280;7534;50.762;7.000;2023-04-24T01:01:44;87882.47;;;-143.16;59.61
14885;BME280;7534;50.762;7.000;2023-04-24T01:04:12;87894.56;;;-143.16;59.43
14885;BME280;7534;50.762;7.000;2023-04-24T01:06:43;87876.41;;;-143.16;59.29
14885;BME280;7534;50.762;7.000;2023-04-24T01:09:11;87860.25;;;-143.16;59.09
14885;BME280;7534;50.762;7.000;2023-04-24T01:11:37;87781.53;;;-143.16;59.16
14885;BME280;7534;50.762;7.000;2023-04-24T01:14:06;87890.53;;;-143.16;58.91
14885;BME280;7534;50.762;7.000;2023-04-24T01:16:32;87894.56;;;-143.16;59.24
14885;BME280;7534;50.762;7.000;2023-04-24T01:18:57;87886.50;;;-143.16;58.83
14885;BME280;7534;50.762;7.000;2023-04-24T01:21:26;87918.78;;;-143.16;58.31
14885;BME280;7534;50.762;7.000;2023-04-24T01:23:53;87894.56;;;-143.16;58.75
14885;BME280;7534;50.762;7.000;2023-04-24T01:26:20;88031.84;;;-143.16;58.83
14885;BME280;7534;50.762;7.000;2023-04-24T01:28:47;87910.72;;;-143.16;58.25
14885;BME280;7534;50.762;7.000;2023-04-24T01:31:14;87920.81;;;-143.16;58.04
14885;BME280;7534;50.762;7.000;2023-04-24T01:33:42;87922.81;;;-143.16;57.40
14885;BME280;7534;50.762;7.000;2023-04-24T01:36:13;87914.75;;;-143.16;57.39
14885;BME280;7534;50.762;7.000;2023-04-24T01:38:39;87920.81;;;-143.16;56.96
14885;BME280;7534;50.762;7.000;2023-04-24T01:41:04;87922.81;;;-143.16;55.74
14885;BME280;7534;50.762;7.000;2023-04-24T01:43:30;87987.44;;;-143.16;55.86
14885;BME280;7534;50.762;7.000;2023-04-24T01:45:57;87934.94;;;-143.16;55.28
14885;BME280;7534;50.762;7.000;2023-04-24T01:48:22;87959.16;;;-143.16;54.60
14885;BME280;7534;50.762;7.000;2023-04-24T01:50:48;87975.31;;;-143.16;54.16
14885;BME280;7534;50.762;7.000;2023-04-24T01:53:14;87967.25;;;-143.16;53.93
14885;BME280;7534;50.762;7.000;2023-04-24T01:55:40;87938.97;;;-143.16;54.39
14885;BME280;7534;50.762;7.000;2023-04-24T01:58:07;87971.28;;;-143.16;54.36
14885;BME280;7534;50.762;7.000;2023-04-24T02:00:33;87947.06;;;-143.16;54.13
14885;BME280;7534;50.762;7.000;2023-04-24T02:02:59;88023.75;;;-143.16;54.54
14885;BME280;7534;50.762;7.000;2023-04-24T02:05:24;87987.44;;;-143.16;54.54
14885;BME280;7534;50.762;7.000;2023-04-24T02:07:50;88021.75;;;-143.16;54.75
14885;BME280;7534;50.762;7.000;2023-04-24T02:10:16;88001.56;;;-143.16;54.98
14885;BME280;7534;50.762;7.000;2023-04-24T02:12:41;88017.69;;;-143.16;55.73
14885;BME280;7534;50.762;7.000;2023-04-24T02:15:07;88100.47;;;-143.16;55.85
14885;BME280;7534;50.762;7.000;2023-04-24T02:17:33;88039.91;;;-143.16;54.70
14885;BME280;7534;50.762;7.000;2023-04-24T02:19:59;88118.63;;;-143.16;55.22
14885;BME280;7534;50.762;7.000;2023-04-24T02:22:24;88094.41;;;-143.16;55.07
14885;BME280;7534;50.762;7.000;2023-04-24T02:24:50;88096.44;;;-143.16;55.00
14885;BME280;7534;50.762;7.000;2023-04-24T02:27:16;88106.53;;;-143.16;54.79
14885;BME280;7534;50.762;7.000;2023-04-24T02:29:41;88146.88;;;-143.16;55.41
14885;BME280;7534;50.762;7.000;2023-04-24T02:32:07;88165.06;;;-143.16;55.49
14885;BME280;7534;50.762;7.000;2023-04-24T02:34:36;88148.91;;;-143.16;56.03
14885;BME280;7534;50.762;7.000;2023-04-24T02:37:02;88142.84;;;-143.16;56.13
14885;BME280;7534;50.762;7.000;2023-04-24T02:39:27;88144.88;;;-143.16;56.41
14885;BME280;7534;50.762;7.000;2023-04-24T02:41:53;88217.53;;;-143.16;56.61
14885;BME280;7534;50.762;7.000;2023-04-24T02:44:19;88274.06;;;-143.16;56.81
14885;BME280;7534;50.762;7.000;2023-04-24T02:46:44;88189.28;;;-143.16;56.92
14885;BME280;7534;50.762;7.000;2023-04-24T02:49:11;88221.59;;;-143.16;57.15
14885;BME280;7534;50.762;7.000;2023-04-24T02:51:37;88203.41;;;-143.16;57.19
14885;BME280;7534;50.762;7.000;2023-04-24T02:54:07;88221.59;;;-143.16;57.42
14885;BME280;7534;50.762;7.000;2023-04-24T02:56:33;88213.50;;;-143.16;57.87
14885;BME280;7534;50.762;7.000;2023-04-24T02:58:59;88231.69;;;-143.16;57.86
14885;BME280;7534;50.762;7.000;2023-04-24T03:01:25;88229.66;;;-143.16;58.01
14885;BME280;7534;50.762;7.000;2023-04-24T03:03:51;88189.28;;;-143.16;57.86
14885;BME280;7534;50.762;7.000;2023-04-24T03:06:16;88233.69;;;-143.16;58.20
14885;BME280;7534;50.762;7.000;2023-04-24T03:08:42;88229.66;;;-143.16;58.21
14885;BME280;7534;50.762;7.000;2023-04-24T03:11:08;88237.72;;;-143.16;58.25
14885;BME280;7534;50.762;7.000;2023-04-24T03:13:33;88253.88;;;-143.16;58.51
14885;BME280;7534;50.762;7.000;2023-04-24T03:15:59;88239.75;;;-143.16;58.12
14885;BME280;7534;50.762;7.000;2023-04-24T03:18:25;88237.72;;;-143.16;58.07
14885;BME280;7534;50.762;7.000;2023-04-24T03:20:51;88249.84;;;-143.16;58.20
14885;BME280;7534;50.762;7.000;2023-04-24T03:23:16;88241.78;;;-143.16;58.00
14885;BME280;7534;50.762;7.000;2023-04-24T03:25:42;88247.81;;;-143.16;58.09
14885;BME280;7534;50.762;7.000;2023-04-24T03:28:08;88344.72;;;-143.16;58.10
14885;BME280;7534;50.762;7.000;2023-04-24T03:30:34;88274.06;;;-143.16;58.09
14885;BME280;7534;50.762;7.000;2023-04-24T03:33:00;88270.03;;;-143.16;58.39
14885;BME280;7534;50.762;7.000;2023-04-24T03:35:25;88280.13;;;-143.16;58.49
14885;BME280;7534;50.762;7.000;2023-04-24T03:37:51;88261.97;;;-143.16;58.62
14885;BME280;7534;50.762;7.000;2023-04-24T03:40:17;88257.91;;;-143.16;58.40
14885;BME280;7534;50.762;7.000;2023-04-24T03:42:42;88227.63;;;-143.16;58.20
14885;BME280;7534;50.762;7.000;2023-04-24T03:45:09;88241.78;;;-143.16;57.92
14885;BME280;7534;50.762;7.000;2023-04-24T03:47:35;88243.78;;;-143.16;58.01
14885;BME280;7534;50.762;7.000;2023-04-24T03:50:01;88294.25;;;-143.16;58.00
14885;BME280;7534;50.762;7.000;2023-04-24T03:52:27;88253.88;;;-143.16;58.10
14885;BME280;7534;50.762;7.000;2023-04-24T03:54:53;88272.06;;;-143.16;58.38
14885;BME280;7534;50.762;7.000;2023-04-24T03:57:18;88318.47;;;-143.16;58.59
14885;BME280;7534;50.762;7.000;2023-04-24T03:59:44;88245.81;;;-143.16;58.49
14885;BME280;7534;50.762;7.000;2023-04-24T04:02:10;88286.19;;;-143.16;58.68
14885;BME280;7534;50.762;7.000;2023-04-24T04:04:35;88292.22;;;-143.16;58.91
14885;BME280;7534;50.762;7.000;2023-04-24T04:07:01;88302.34;;;-143.16;58.94
14885;BME280;7534;50.762;7.000;2023-04-24T04:09:28;88229.66;;;-143.16;58.87
14885;BME280;7534;50.762;7.000;2023-04-24T04:11:54;88245.81;;;-143.16;58.83
14885;BME280;7534;50.762;7.000;2023-04-24T04:14:21;88253.88;;;-143.16;58.82
14885;BME280;7534;50.762;7.000;2023-04-24T04:16:47;88282.16;;;-143.16;58.71
14885;BME280;7534;50.762;7.000;2023-04-24T04:19:13;88217.53;;;-143.16;58.78
14885;BME280;7534;50.762;7.000;2023-04-24T04:21:38;88257.91;;;-143.16;58.96
14885;BME280;7534;50.762;7.000;2023-04-24T04:24:04;88270.03;;;-143.16;59.13
14885;BME280;7534;50.762;7.000;2023-04-24T04:26:31;88302.34;;;-143.16;59.43
14885;BME280;7534;50.762;7.000;2023-04-24T04:29:01;88245.81;;;-143.16;59.33
14885;BME280;7534;50.762;7.000;2023-04-24T04:31:27;88263.97;;;-143.16;59.23
14885;BME280;7534;50.762;7.000;2023-04-24T04:33:53;88282.16;;;-143.16;59.31
14885;BME280;7534;50.762;7.000;2023-04-24T04:36:18;88286.19;;;-143.16;59.08
14885;BME280;7534;50.762;7.000;2023-04-24T04:38:44;88247.81;;;-143.16;58.59
14885;BME280;7534;50.762;7.000;2023-04-24T04:41:10;88207.44;;;-143.16;58.35
14885;BME280;7534;50.762;7.000;2023-04-24T04:43:36;88221.59;;;-143.16;58.27
14885;BME280;7534;50.762;7.000;2023-04-24T04:46:03;88221.59;;;-143.16;58.06
14885;BME280;7534;50.762;7.000;2023-04-24T04:48:29;88221.59;;;-143.16;57.50
14885;BME280;7534;50.762;7.000;2023-04-24T04:50:57;88213.50;;;-143.16;57.34
14885;BME280;7534;50.762;7.000;2023-04-24T04:53:23;88167.06;;;-143.16;57.08
14885;BME280;7534;50.762;7.000;2023-04-24T04:55:49;88229.66;;;-143.16;56.93
14885;BME280;7534;50.762;7.000;2023-04-24T04:58:14;88191.31;;;-143.16;56.81
14885;BME280;7534;50.762;7.000;2023-04-24T05:00:40;88193.31;;;-143.16;56.84
14885;BME280;7534;50.762;7.000;2023-04-24T05:03:06;88211.50;;;-143.16;56.81
14885;BME280;7534;50.762;7.000;2023-04-24T05:05:32;88181.22;;;-143.16;56.81
14885;BME280;7534;50.762;7.000;2023-04-24T05:07:58;88229.66;;;-143.16;56.70
14885;BME280;7534;50.762;7.000;2023-04-24T05:10:23;88189.28;;;-143.16;56.78
14885;BME280;7534;50.762;7.000;2023-04-24T05:12:49;88193.31;;;-143.16;56.86
14885;BME280;7534;50.762;7.000;2023-04-24T05:15:15;88197.34;;;-143.16;56.86
14885;BME280;7534;50.762;7.000;2023-04-24T05:17:40;88165.06;;;-143.16;56.79
14885;BME280;7534;50.762;7.000;2023-04-24T05:20:07;88144.88;;;-143.16;56.50
14885;BME280;7534;50.762;7.000;2023-04-24T05:22:32;88175.16;;;-143.16;56.58
14885;BME280;7534;50.762;7.000;2023-04-24T05:24:58;88120.66;;;-143.16;56.07
14885;BME280;7534;50.762;7.000;2023-04-24T05:27:24;88114.59;;;-143.16;55.57
14885;BME280;7534;50.762;7.000;2023-04-24T05:29:50;88102.47;;;-143.16;54.69
14885;BME280;7534;50.762;7.000;2023-04-24T05:32:16;88094.41;;;-143.16;54.40
14885;BME280;7534;50.762;7.000;2023-04-24T05:34:42;88102.47;;;-143.16;54.44
14885;BME280;7534;50.762;7.000;2023-04-24T05:37:07;88130.75;;;-143.16;54.61
14885;BME280;7534;50.762;7.000;2023-04-24T05:39:35;88078.25;;;-143.16;54.39
14885;BME280;7534;50.762;7.000;2023-04-24T05:42:02;88102.47;;;-143.16;54.33
14885;BME280;7534;50.762;7.000;2023-04-24T05:44:28;88058.06;;;-143.16;54.13
14885;BME280;7534;50.762;7.000;2023-04-24T05:46:54;88047.97;;;-143.16;53.96
14885;BME280;7534;50.762;7.000;2023-04-24T05:49:21;88078.25;;;-143.16;53.55
14885;BME280;7534;50.762;7.000;2023-04-24T05:51:47;88007.59;;;-143.16;53.62
14885;BME280;7534;50.762;7.000;2023-04-24T05:54:12;88058.06;;;-143.16;53.44
14885;BME280;7534;50.762;7.000;2023-04-24T05:56:39;88052.00;;;-143.16;53.62
14885;BME280;7534;50.762;7.000;2023-04-24T05:59:05;88031.84;;;-143.16;53.54
14885;BME280;7534;50.762;7.000;2023-04-24T06:01:31;88056.06;;;-143.16;53.78
14885;BME280;7534;50.762;7.000;2023-04-24T06:03:57;88098.44;;;-143.16;54.98
14885;BME280;7534;50.762;7.000;2023-04-24T06:06:24;88052.00;;;-143.16;56.52
14885;BME280;7534;50.762;7.000;2023-04-24T06:08:49;88076.25;;;-143.16;56.68
14885;BME280;7534;50.762;7.000;2023-04-24T06:11:15;88031.84;;;-143.16;57.20
14885;BME280;7534;50.762;7.000;2023-04-24T06:13:41;88023.75;;;-143.16;57.58
14885;BME280;7534;50.762;7.000;2023-04-24T06:16:07;87997.50;;;-143.16;57.84
14885;BME280;7534;50.762;7.000;2023-04-24T06:18:33;88080.28;;;-143.16;58.78
14885;BME280;7534;50.762;7.000;2023-04-24T06:20:59;88076.25;;;-143.16;57.70
14885;BME280;7534;50.762;7.000;2023-04-24T06:23:24;88076.25;;;-143.16;57.46
14885;BME280;7534;50.762;7.000;2023-04-24T06:25:51;88072.19;;;-143.16;57.97
14885;BME280;7534;50.762;7.000;2023-04-24T06:28:17;88064.13;;;-143.16;56.80
14885;BME280;7534;50.762;7.000;2023-04-24T06:30:42;88076.25;;;-143.16;57.22
14885;BME280;7534;50.762;7.000;2023-04-24T06:33:09;88056.06;;;-143.16;57.37
14885;BME280;7534;50.762;7.000;2023-04-24T06:35:35;88035.88;;;-143.16;56.64
14885;BME280;7534;50.762;7.000;2023-04-24T06:38:01;88092.38;;;-143.16;56.88
14885;BME280;7534;50.762;7.000;2023-04-24T06:40:27;88058.06;;;-143.16;57.50
14885;BME280;7534;50.762;7.000;2023-04-24T06:42:53;88039.91;;;-143.16;57.56
14885;BME280;7534;50.762;7.000;2023-04-24T06:45:19;88080.28;;;-143.16;58.47
14885;BME280;7534;50.762;7.000;2023-04-24T06:47:45;88146.88;;;-143.16;58.22
14885;BME280;7534;50.762;7.000;2023-04-24T06:50:10;88118.63;;;-143.16;59.38
14885;BME280;7534;50.762;7.000;2023-04-24T06:52:37;88173.13;;;-143.16;59.96
14885;BME280;7534;50.762;7.000;2023-04-24T06:55:03;88154.97;;;-143.16;60.61
14885;BME280;7534;50.762;7.000;2023-04-24T06:57:29;88092.38;;;-143.16;61.42
14885;BME280;7534;50.762;7.000;2023-04-24T06:59:55;88128.72;;;-143.16;61.32
14885;BME280;7534;50.762;7.000;2023-04-24T07:02:21;88138.81;;;-143.16;62.38
14885;BME280;7534;50.762;7.000;2023-04-24T07:04:47;88124.69;;;-143.16;62.42
14885;BME280;7534;50.762;7.000;2023-04-24T07:07:13;88161.03;;;-143.16;63.10
14885;BME280;7534;50.762;7.000;2023-04-24T07:09:42;88132.75;;;-143.16;63.24
14885;BME280;7534;50.762;7.000;2023-04-24T07:12:09;88090.38;;;-143.16;63.27
14885;BME280;7534;50.762;7.000;2023-04-24T07:14:37;88124.69;;;-143.16;62.81
14885;BME280;7534;50.762;7.000;2023-04-24T07:17:04;88110.56;;;-143.16;62.96
14885;BME280;7534;50.762;7.000;2023-04-24T07:19:34;88126.72;;;-143.16;64.08
14885;BME280;7534;50.762;7.000;2023-04-24T07:22:02;88257.91;;;-143.16;64.56
14885;BME280;7534;50.762;7.000;2023-04-24T07:24:29;88175.16;;;-143.16;65.21
14885;BME280;7534;50.762;7.000;2023-04-24T07:26:55;88199.38;;;-143.16;65.63
14885;BME280;7534;50.762;7.000;2023-04-24T07:29:21;88191.31;;;-143.16;66.02
14885;BME280;7534;50.762;7.000;2023-04-24T07:31:47;88169.09;;;-143.16;66.70
14885;BME280;7534;50.762;7.000;2023-04-24T07:34:13;88189.28;;;-143.16;67.18
14885;BME280;7534;50.762;7.000;2023-04-24T07:36:40;88173.13;;;-143.16;67.76
14885;BME280;7534;50.762;7.000;2023-04-24T07:39:07;88195.34;;;-143.16;68.89
14885;BME280;7534;50.762;7.000;2023-04-24T07:41:33;88167.06;;;-143.16;69.45
14885;BME280;7534;50.762;7.000;2023-04-24T07:43:59;88173.13;;;-143.16;70.02
14885;BME280;7534;50.762;7.000;2023-04-24T07:46:25;88189.28;;;-143.16;70.43
14885;BME280;7534;50.762;7.000;2023-04-24T07:48:50;88173.13;;;-143.16;71.00
14885;BME280;7534;50.762;7.000;2023-04-24T07:51:16;88223.59;;;-143.16;71.36
14885;BME280;7534;50.762;7.000;2023-04-24T07:53:42;88197.34;;;-143.16;72.08
14885;BME280;7534;50.762;7.000;2023-04-24T07:56:08;88181.22;;;-143.16;72.91
14885;BME280;7534;50.762;7.000;2023-04-24T07:58:34;88169.09;;;-143.16;73.78
14885;BME280;7534;50.762;7.000;2023-04-24T08:01:00;88193.31;;;-143.16;72.98
14885;BME280;7534;50.762;7.000;2023-04-24T08:03:26;88199.38;;;-143.16;73.42
14885;BME280;7534;50.762;7.000;2023-04-24T08:05:52;88257.91;;;-143.16;73.72
14885;BME280;7534;50.762;7.000;2023-04-24T08:08:20;88229.66;;;-143.16;73.97
14885;BME280;7534;50.762;7.000;2023-04-24T08:10:46;88300.31;;;-143.16;75.65
14885;BME280;7534;50.762;7.000;2023-04-24T08:13:12;88270.03;;;-143.16;76.66
14885;BME280;7534;50.762;7.000;2023-04-24T08:15:39;88316.47;;;-143.16;77.47
14885;BME280;7534;50.762;7.000;2023-04-24T08:18:04;88266.00;;;-143.16;77.39
14885;BME280;7534;50.762;7.000;2023-04-24T08:20:30;88280.13;;;-143.16;77.86
14885;BME280;7534;50.762;7.000;2023-04-24T08:22:56;88294.25;;;-143.16;78.02
14885;BME280;7534;50.762;7.000;2023-04-24T08:25:22;88266.00;;;-143.16;78.21
14885;BME280;7534;50.762;7.000;2023-04-24T08:27:50;88286.19;;;-143.16;77.86
14885;BME280;7534;50.762;7.000;2023-04-24T08:30:16;88286.19;;;-143.16;78.16
14885;BME280;7534;50.762;7.000;2023-04-24T08:32:42;88286.19;;;-143.16;78.71
14885;BME280;7534;50.762;7.000;2023-04-24T08:35:08;88320.50;;;-143.16;78.95
14885;BME280;7534;50.762;7.000;2023-04-24T08:37:35;88336.66;;;-143.16;78.96
14885;BME280;7534;50.762;7.000;2023-04-24T08:40:09;88362.91;;;-143.16;79.36
14885;BME280;7534;50.762;7.000;2023-04-24T08:42:37;88358.84;;;-143.16;79.89
14885;BME280;7534;50.762;7.000;2023-04-24T08:45:04;88358.84;;;-143.16;79.39
14885;BME280;7534;50.762;7.000;2023-04-24T08:47:32;88399.22;;;-143.16;80.00
14885;BME280;7534;50.762;7.000;2023-04-24T08:49:59;88338.66;;;-143.16;78.87
14885;BME280;7534;50.762;7.000;2023-04-24T08:52:28;88354.81;;;-143.16;79.30
14885;BME280;7534;50.762;7.000;2023-04-24T08:54:55;88397.22;;;-143.16;79.48
14885;BME280;7534;50.762;7.000;2023-04-24T08:57:22;88405.28;;;-143.16;79.72
14885;BME280;7534;50.762;7.000;2023-04-24T08:59:48;88346.75;;;-143.16;80.87
14885;BME280;7534;50.762;7.000;2023-04-24T09:02:15;88373.00;;;-143.16;81.10
14885;BME280;7534;50.762;7.000;2023-04-24T09:04:44;88364.91;;;-143.16;81.42
14885;BME280;7534;50.762;7.000;2023-04-24T09:07:14;88350.78;;;-143.16;80.64
14885;BME280;7534;50.762;7.000;2023-04-24T09:09:41;88377.03;;;-143.16;81.38
14885;BME280;7534;50.762;7.000;2023-04-24T09:12:07;88346.75;;;-143.16;81.36
14885;BME280;7534;50.762;7.000;2023-04-24T09:14:36;88338.66;;;-143.16;81.52
14885;BME280;7534;50.762;7.000;2023-04-24T09:17:06;88350.78;;;-143.16;81.09
14885;BME280;7534;50.762;7.000;2023-04-24T09:19:32;88334.63;;;-143.16;81.93
14885;BME280;7534;50.762;7.000;2023-04-24T09:21:57;88413.38;;;-143.16;81.79
14885;BME280;7534;50.762;7.000;2023-04-24T09:24:23;88366.94;;;-143.16;82.48
14885;BME280;7534;50.762;7.000;2023-04-24T09:26:57;88381.06;;;-143.16;83.37
14885;BME280;7534;50.762;7.000;2023-04-24T09:29:24;88366.94;;;-143.16;83.47
14885;BME280;7534;50.762;7.000;2023-04-24T09:31:50;88274.06;;;-143.16;83.72
14885;BME280;7534;50.762;7.000;2023-04-24T09:34:25;88395.19;;;-143.16;82.48
14885;BME280;7534;50.762;7.000;2023-04-24T09:36:53;88377.03;;;-143.16;82.79
14885;BME280;7534;50.762;7.000;2023-04-24T09:39:19;88399.22;;;-143.16;83.47
14885;BME280;7534;50.762;7.000;2023-04-24T09:41:56;88354.81;;;-143.16;84.12
14885;BME280;7534;50.762;7.000;2023-04-24T09:44:27;88316.47;;;-143.16;83.27
14885;BME280;7534;50.762;7.000;2023-04-24T09:47:09;88318.47;;;-143.16;83.49
14885;BME280;7534;50.762;7.000;2023-04-24T09:49:41;88322.53;;;-143.16;82.63
14885;BME280;7534;50.762;7.000;2023-04-24T09:52:11;88255.91;;;-143.16;82.46
14885;BME280;7534;50.762;7.000;2023-04-24T09:54:38;88286.19;;;-143.16;81.11
14885;BME280;7534;50.762;7.000;2023-04-24T09:57:04;88286.19;;;-143.16;78.85
14885;BME280;7534;50.762;7.000;2023-04-24T09:59:30;88263.97;;;-143.16;79.90
14885;BME280;7534;50.762;7.000;2023-04-24T10:01:56;88257.91;;;-143.16;79.51
14885;BME280;7534;50.762;7.000;2023-04-24T10:04:26;88245.81;;;-143.16;80.07
14885;BME280;7534;50.762;7.000;2023-04-24T10:06:56;88219.56;;;-143.16;79.13
14885;BME280;7534;50.762;7.000;2023-04-24T10:09:26;88203.41;;;-143.16;78.24
14885;BME280;7534;50.762;7.000;2023-04-24T10:11:54;88209.47;;;-143.16;77.94
14885;BME280;7534;50.762;7.000;2023-04-24T10:14:24;88245.81;;;-143.16;77.17
14885;BME280;7534;50.762;7.000;2023-04-24T10:16:54;88288.19;;;-143.16;78.01
14885;BME280;7534;50.762;7.000;2023-04-24T10:19:26;88227.63;;;-143.16;78.56
14885;BME280;7534;50.762;7.000;2023-04-24T10:21:53;88235.72;;;-143.16;78.34
14885;BME280;7534;50.762;7.000;2023-04-24T10:24:20;88199.38;;;-143.16;78.73
14885;BME280;7534;50.762;7.000;2023-04-24T10:26:48;88187.25;;;-143.16;78.38
14885;BME280;7534;50.762;7.000;2023-04-24T10:29:18;88144.88;;;-143.16;76.02
14885;BME280;7534;50.762;7.000;2023-04-24T10:31:45;88138.81;;;-143.16;75.66
14885;BME280;7534;50.762;7.000;2023-04-24T10:34:14;88159.00;;;-143.16;74.44
14885;BME280;7534;50.762;7.000;2023-04-24T10:36:48;88052.00;;;-143.16;73.32
14885;BME280;7534;50.762;7.000;2023-04-24T10:39:16;87989.44;;;-143.16;72.64
14885;BME280;7534;50.762;7.000;2023-04-24T10:41:44;88007.59;;;-143.16;70.50
14885;BME280;7534;50.762;7.000;2023-04-24T10:44:14;88007.59;;;-143.16;67.74
14885;BME280;7534;50.762;7.000;2023-04-24T10:46:53;88102.47;;;-143.16;69.40
14885;BME280;7534;50.762;7.000;2023-04-24T10:49:29;88112.56;;;-143.16;71.79
14885;BME280;7534;50.762;7.000;2023-04-24T10:52:02;88060.09;;;-143.16;73.08
14885;BME280;7534;50.762;7.000;2023-04-24T10:54:46;87989.44;;;-143.16;70.00
14885;BME280;7534;50.762;7.000;2023-04-24T10:59:45;87983.38;;;-143.16;69.07
14885;BME280;7534;50.762;7.000;2023-04-24T11:02:14;87977.31;;;-143.16;69.04
14885;BME280;7534;50.762;7.000;2023-04-24T11:04:41;87981.38;;;-143.16;68.94
14885;BME280;7534;50.762;7.000;2023-04-24T11:07:09;88035.88;;;-143.16;69.04
14885;BME280;7534;50.762;7.000;2023-04-24T11:09:36;88060.09;;;-143.16;69.85
14885;BME280;7534;50.762;7.000;2023-04-24T11:12:11;88043.94;;;-143.16;71.25
14885;BME280;7534;50.762;7.000;2023-04-24T11:17:32;87967.25;;;-143.16;68.92
14885;BME280;7534;50.762;7.000;2023-04-24T11:20:11;87910.72;;;-143.16;68.37
14885;BME280;7534;50.762;7.000;2023-04-24T11:22:39;87878.41;;;-143.16;67.22
14885;BME280;7534;50.762;7.000;2023-04-24T11:25:09;87848.16;;;-143.16;64.34
14885;BME280;7534;50.762;7.000;2023-04-24T11:27:44;87809.78;;;-143.16;65.61
14885;BME280;7534;50.762;7.000;2023-04-24T11:30:11;87662.44;;;-143.16;61.17
14885;BME280;7534;50.762;7.000;2023-04-24T11:32:42;87660.44;;;-143.16;59.66
14885;BME280;7534;50.762;7.000;2023-04-24T11:35:20;87650.34;;;-143.16;58.21
14885;BME280;7534;50.762;7.000;2023-04-24T11:37:54;87593.81;;;-143.16;57.15
14885;BME280;7534;50.762;7.000;2023-04-24T11:40:23;87680.63;;;-143.16;56.14
14885;BME280;7534;50.762;7.000;2023-04-24T11:42:51;87749.25;;;-143.16;56.14
14885;BME280;7534;50.762;7.000;2023-04-24T11:45:22;87801.72;;;-143.16;57.50
14885;BME280;7534;50.762;7.000;2023-04-24T11:47:49;87801.72;;;-143.16;57.96
14885;BME280;7534;50.762;7.000;2023-04-24T11:50:17;87775.47;;;-143.16;55.59
14885;BME280;7534;50.762;7.000;2023-04-24T11:52:45;87785.56;;;-143.16;52.89
14885;BME280;7534;50.762;7.000;2023-04-24T11:57:47;87765.38;;;-143.16;53.44
14885;BME280;7534;50.762;7.000;2023-04-24T12:00:32;87735.13;;;-143.16;55.53
14885;BME280;7534;50.762;7.000;2023-04-24T12:03:09;87751.25;;;-143.16;55.55
14885;BME280;7534;50.762;7.000;2023-04-24T12:05:36;87743.19;;;-143.16;56.54
14885;BME280;7534;50.762;7.000;2023-04-24T12:08:03;87819.88;;;-143.16;57.31
14885;BME280;7534;50.762;7.000;2023-04-24T12:10:31;87803.75;;;-143.16;57.20
14885;BME280;7534;50.762;7.000;2023-04-24T12:12:58;87789.63;;;-143.16;58.24
14885;BME280;7534;50.762;7.000;2023-04-24T12:15:25;87823.91;;;-143.16;58.32
14885;BME280;7534;50.762;7.000;2023-04-24T12:17:52;87763.38;;;-143.16;58.03
14885;BME280;7534;50.762;7.000;2023-04-24T12:20:28;87733.09;;;-143.16;56.42
14885;BME280;7534;50.762;7.000;2023-04-24T12:22:56;87834.03;;;-143.16;55.78
14885;BME280;7534;50.762;7.000;2023-04-24T12:25:25;87823.91;;;-143.16;58.59
14885;BME280;7534;50.762;7.000;2023-04-24T12:30:30;87682.63;;;-143.16;54.16
14885;BME280;7534;50.762;7.000;2023-04-24T12:32:58;87700.81;;;-143.16;53.88
14885;BME280;7534;50.762;7.000;2023-04-24T12:35:30;87761.34;;;-143.16;53.62
14885;BME280;7534;50.762;7.000;2023-04-24T12:38:06;87781.53;;;-143.16;53.80
14885;BME280;7534;50.762;7.000;2023-04-24T12:40:33;87704.84;;;-143.16;54.94
14885;BME280;7534;50.762;7.000;2023-04-24T12:42:59;87678.59;;;-143.16;51.58
14885;BME280;7534;50.762;7.000;2023-04-24T12:45:27;87571.63;;;-143.16;48.81
14885;BME280;7534;50.762;7.000;2023-04-24T12:47:54;87551.44;;;-143.16;48.34
14885;BME280;7534;50.762;7.000;2023-04-24T12:50:20;87533.28;;;-143.16;48.44
14885;BME280;7534;50.762;7.000;2023-04-24T12:52:47;87561.53;;;-143.16;47.46
14885;BME280;7534;50.762;7.000;2023-04-24T12:55:13;87573.66;;;-143.16;48.28
14885;BME280;7534;50.762;7.000;2023-04-24T12:57:40;87579.69;;;-143.16;47.18
14885;BME280;7534;50.762;7.000;2023-04-24T13:00:07;87553.47;;;-143.16;49.34